createdAt,value
2023-02-14T00:00:24.964Z,100542.57
2023-02-14T00:03:30.517Z,100546.23
2023-02-14T00:06:22.632Z,100539.45
2023-02-14T00:09:16.579Z,100532.30
2023-02-14T00:12:09.159Z,100535.26
2023-02-14T00:15:18.845Z,100535.45
2023-02-14T00:17:55.326Z,100535.11
2023-02-14T00:20:47.415Z,100533.27
2023-02-14T00:23:39.517Z,100530.15
2023-02-14T00:26:31.381Z,100534.16
2023-02-14T00:29:25.958Z,100534.29
2023-02-14T00:32:18.024Z,100536.95
2023-02-14T00:35:11.562Z,100533.58
2023-02-14T00:38:03.630Z,100533.20
2023-02-14T00:40:55.685Z,100533.40
2023-02-14T00:43:48.285Z,100541.92
2023-02-14T00:46:40.668Z,100540.46
2023-02-14T00:49:32.783Z,100544.09
2023-02-14T00:52:24.823Z,100545.37
2023-02-14T00:55:17.032Z,100541.83
2023-02-14T00:58:09.100Z,100542.63
2023-02-14T01:01:01.968Z,100542.90
2023-02-14T01:03:54.217Z,100536.10
2023-02-14T01:06:46.328Z,100542.36
2023-02-14T01:09:38.384Z,100539.33
2023-02-14T01:12:15.864Z,100537.45
2023-02-14T01:15:09.250Z,100535.23
2023-02-14T01:17:52.535Z,100528.35
2023-02-14T01:20:44.936Z,100525.05
2023-02-14T01:23:37.018Z,100524.91
2023-02-14T01:26:29.863Z,100525.38
2023-02-14T01:29:21.912Z,100524.41
2023-02-14T01:32:14.016Z,100525.59
2023-02-14T01:35:06.436Z,100526.98
2023-02-14T01:37:58.551Z,100519.30
2023-02-14T01:40:51.044Z,100519.50
2023-02-14T01:43:55.805Z,100520.04
2023-02-14T01:46:48.365Z,100525.05
2023-02-14T01:49:43.518Z,100519.88
2023-02-14T01:52:38.752Z,100518.52
2023-02-14T01:55:33.623Z,100513.79
2023-02-14T01:58:30.247Z,100509.21
2023-02-14T02:01:22.511Z,100505.43
2023-02-14T02:04:19.338Z,100510.98
2023-02-14T02:07:15.603Z,100506.50
2023-02-14T02:10:10.021Z,100507.02
2023-02-14T02:13:06.499Z,100508.19
2023-02-14T02:15:51.543Z,100502.45
2023-02-14T02:18:58.023Z,100504.14
2023-02-14T02:22:13.737Z,100499.54
2023-02-14T02:25:24.480Z,100505.56
2023-02-14T02:28:37.486Z,100506.47
2023-02-14T02:31:46.730Z,100512.36
2023-02-14T02:35:13.387Z,100511.88
2023-02-14T02:38:20.611Z,100504.00
2023-02-14T02:41:24.218Z,100504.89
2023-02-14T02:44:30.463Z,100506.88
2023-02-14T02:47:35.140Z,100516.16
2023-02-14T02:50:50.144Z,100512.23
2023-02-14T02:53:46.620Z,100508.27
2023-02-14T02:56:49.694Z,100509.94
2023-02-14T02:59:45.234Z,100513.55
2023-02-14T03:02:27.531Z,100510.98
2023-02-14T03:05:19.860Z,100508.36
2023-02-14T03:07:55.036Z,100499.02
2023-02-14T03:10:47.587Z,100499.16
2023-02-14T03:14:09.354Z,100501.16
2023-02-14T03:17:08.115Z,100501.41
2023-02-14T03:20:14.480Z,100500.87
2023-02-14T03:23:10.148Z,100501.23
2023-02-14T03:26:12.351Z,100502.08
2023-02-14T03:28:54.616Z,100504.98
2023-02-14T03:31:57.261Z,100508.98
2023-02-14T03:35:10.533Z,100512.89
2023-02-14T03:38:09.752Z,100513.86
2023-02-14T03:41:04.718Z,100514.27
2023-02-14T03:43:59.995Z,100511.00
2023-02-14T03:46:55.968Z,100515.17
2023-02-14T03:49:52.488Z,100512.59
2023-02-14T03:52:45.646Z,100511.18
2023-02-14T03:55:45.747Z,100512.35
2023-02-14T03:58:41.218Z,100512.29
2023-02-14T04:01:28.315Z,100515.84
2023-02-14T04:04:24.590Z,100516.26
2023-02-14T04:07:19.243Z,100520.20
2023-02-14T04:10:12.626Z,100518.77
2023-02-14T04:13:04.841Z,100521.18
2023-02-14T04:15:57.274Z,100522.35
2023-02-14T04:19:06.972Z,100523.40
2023-02-14T04:21:59.025Z,100519.10
2023-02-14T04:24:51.113Z,100514.38
2023-02-14T04:27:43.310Z,100515.72
2023-02-14T04:30:35.472Z,100513.91
2023-02-14T04:33:27.589Z,100514.55
2023-02-14T04:36:19.675Z,100513.81
2023-02-14T04:39:11.757Z,100515.70
2023-02-14T04:42:04.617Z,100513.52
2023-02-14T04:44:56.829Z,100513.91
2023-02-14T04:47:48.908Z,100510.27
2023-02-14T04:50:40.987Z,100513.23
2023-02-14T04:53:33.055Z,100518.78
2023-02-14T04:56:27.964Z,100519.25
2023-02-14T04:59:20.210Z,100523.36
2023-02-14T05:01:55.578Z,100524.23
2023-02-14T05:04:49.669Z,100527.53
2023-02-14T05:07:27.036Z,100528.38
2023-02-14T05:10:19.324Z,100528.02
2023-02-14T05:13:11.504Z,100526.05
2023-02-14T05:16:03.784Z,100528.02
2023-02-14T05:18:56.008Z,100530.54
2023-02-14T05:21:48.149Z,100525.30
2023-02-14T05:24:40.400Z,100534.14
2023-02-14T05:27:33.150Z,100534.14
2023-02-14T05:30:27.890Z,100537.07
2023-02-14T05:33:20.332Z,100533.64
2023-02-14T05:36:12.899Z,100535.57
2023-02-14T05:39:05.169Z,100536.39
2023-02-14T05:41:59.279Z,100535.56
2023-02-14T05:44:51.764Z,100539.77
2023-02-14T05:47:44.174Z,100542.27
2023-02-14T05:50:36.272Z,100545.98
2023-02-14T05:53:28.386Z,100552.57
2023-02-14T05:56:20.423Z,100556.27
2023-02-14T05:59:14.372Z,100554.74
2023-02-14T06:02:06.556Z,100556.66
2023-02-14T06:04:41.178Z,100563.42
2023-02-14T06:07:33.369Z,100566.77
2023-02-14T06:10:12.832Z,100565.94
2023-02-14T06:13:09.080Z,100572.27
2023-02-14T06:15:43.916Z,100573.00
2023-02-14T06:18:35.880Z,100574.14
2023-02-14T06:21:27.978Z,100575.59
2023-02-14T06:24:20.420Z,100576.25
2023-02-14T06:27:12.585Z,100578.89
2023-02-14T06:30:04.995Z,100577.83
2023-02-14T06:32:39.804Z,100571.59
2023-02-14T06:35:32.072Z,100572.55
2023-02-14T06:38:24.282Z,100579.32
2023-02-14T06:41:06.381Z,100578.02
2023-02-14T06:43:58.757Z,100576.54
2023-02-14T06:46:50.913Z,100586.60
2023-02-14T06:49:43.175Z,100589.55
2023-02-14T06:52:23.757Z,100584.75
2023-02-14T06:55:15.892Z,100585.98
2023-02-14T06:58:08.065Z,100588.95
2023-02-14T07:01:01.136Z,100585.69
2023-02-14T07:03:53.387Z,100590.06
2023-02-14T07:06:41.748Z,100590.27
2023-02-14T07:09:18.308Z,100587.25
2023-02-14T07:12:10.760Z,100590.33
2023-02-14T07:15:02.862Z,100591.06
2023-02-14T07:17:55.136Z,100592.56
2023-02-14T07:20:47.423Z,100591.45
2023-02-14T07:23:40.290Z,100593.09
2023-02-14T07:26:32.425Z,100593.06
2023-02-14T07:29:24.576Z,100595.41
2023-02-14T07:32:16.829Z,100599.23
2023-02-14T07:35:10.782Z,100594.11
2023-02-14T07:37:45.368Z,100596.04
2023-02-14T07:40:37.445Z,100595.59
2023-02-14T07:43:29.827Z,100594.48
2023-02-14T07:46:07.132Z,100596.63
2023-02-14T07:48:59.265Z,100597.25
2023-02-14T07:51:51.437Z,100595.39
2023-02-14T07:54:43.627Z,100594.60
2023-02-14T07:57:35.804Z,100591.44
2023-02-14T08:00:28.752Z,100592.80
2023-02-14T08:03:21.138Z,100590.30
2023-02-14T08:06:13.530Z,100589.92
2023-02-14T08:09:05.979Z,100591.20
2023-02-14T08:12:03.135Z,100589.27
2023-02-14T08:15:15.252Z,100594.21
2023-02-14T08:18:07.398Z,100592.80
2023-02-14T08:20:59.807Z,100592.84
2023-02-14T08:23:52.137Z,100593.26
2023-02-14T08:26:33.437Z,100584.93
2023-02-14T08:29:10.639Z,100591.80
2023-02-14T08:32:02.885Z,100601.17
2023-02-14T08:34:55.052Z,100600.84
2023-02-14T08:37:47.074Z,100596.52
2023-02-14T08:40:40.063Z,100601.02
2023-02-14T08:43:34.185Z,100606.88
2023-02-14T08:46:27.772Z,100608.38
2023-02-14T08:49:19.882Z,100615.55
2023-02-14T08:52:11.939Z,100616.12
2023-02-14T08:55:05.014Z,100619.06
2023-02-14T08:58:00.495Z,100622.20
2023-02-14T09:00:52.760Z,100620.12
2023-02-14T09:03:45.315Z,100625.15
2023-02-14T09:06:40.268Z,100633.65
2023-02-14T09:09:32.881Z,100632.47
2023-02-14T09:12:16.164Z,100631.48
2023-02-14T09:15:10.489Z,100631.59
2023-02-14T09:18:02.766Z,100630.71
2023-02-14T09:20:55.084Z,100628.39
2023-02-14T09:23:47.246Z,100620.59
2023-02-14T09:26:42.091Z,100624.44
2023-02-14T09:29:34.331Z,100627.01
2023-02-14T09:32:09.931Z,100627.19
2023-02-14T09:35:02.021Z,100631.16
2023-02-14T09:38:11.832Z,100633.95
2023-02-14T09:41:09.225Z,100630.39
2023-02-14T09:44:05.638Z,100629.00
2023-02-14T09:46:48.829Z,100635.41
2023-02-14T09:49:42.061Z,100632.70
2023-02-14T09:52:32.996Z,100629.69
2023-02-14T09:55:32.148Z,100633.45
2023-02-14T09:58:19.651Z,100635.66
2023-02-14T10:01:16.350Z,100635.92
2023-02-14T10:04:22.950Z,100630.98
2023-02-14T10:07:04.130Z,100633.13
2023-02-14T10:09:57.031Z,100628.34
2023-02-14T10:12:44.308Z,100630.85
2023-02-14T10:15:29.828Z,100631.15
2023-02-14T10:18:26.293Z,100629.30
2023-02-14T10:21:25.504Z,100628.94
2023-02-14T10:24:22.620Z,100630.63
2023-02-14T10:27:28.079Z,100625.85
2023-02-14T10:30:22.497Z,100626.81
2023-02-14T10:33:11.688Z,100627.08
2023-02-14T10:36:14.443Z,100619.73
2023-02-14T10:39:20.838Z,100622.23
2023-02-14T10:42:22.715Z,100619.83
2023-02-14T10:45:24.618Z,100615.59
2023-02-14T10:48:06.615Z,100616.36
2023-02-14T10:51:04.820Z,100620.85
2023-02-14T10:54:10.027Z,100620.49
2023-02-14T10:57:05.496Z,100616.77
2023-02-14T11:00:02.383Z,100615.20
2023-02-14T11:02:58.521Z,100615.58
2023-02-14T11:05:51.314Z,100609.79
2023-02-14T11:08:44.037Z,100608.79
2023-02-14T11:11:39.934Z,100610.32
2023-02-14T11:14:35.787Z,100603.75
2023-02-14T11:17:32.717Z,100602.36
2023-02-14T11:20:30.438Z,100600.91
2023-02-14T11:23:25.169Z,100597.01
2023-02-14T11:26:27.253Z,100593.80
2023-02-14T11:29:34.874Z,100598.82
2023-02-14T11:32:28.786Z,100596.36
2023-02-14T11:35:27.019Z,100591.55
2023-02-14T11:38:06.208Z,100591.88
2023-02-14T11:40:43.135Z,100587.23
2023-02-14T11:43:38.228Z,100584.98
2023-02-14T11:46:27.162Z,100585.40
2023-02-14T11:49:29.616Z,100582.84
2023-02-14T11:52:19.604Z,100580.95
2023-02-14T11:55:26.720Z,100576.73
2023-02-14T11:58:40.511Z,100570.71
2023-02-14T12:01:35.634Z,100570.02
2023-02-14T12:04:38.121Z,100570.86
2023-02-14T12:07:30.884Z,100562.46
2023-02-14T12:10:27.061Z,100561.02
2023-02-14T12:13:27.261Z,100563.79
2023-02-14T12:16:28.813Z,100563.38
2023-02-14T12:19:28.593Z,100560.96
2023-02-14T12:22:23.574Z,100556.43
2023-02-14T12:25:21.837Z,100545.00
2023-02-14T12:28:17.339Z,100542.55
2023-02-14T12:30:54.759Z,100537.77
2023-02-14T12:33:49.551Z,100534.45
2023-02-14T12:36:57.346Z,100536.52
2023-02-14T12:39:49.576Z,100530.88
2023-02-14T12:42:48.553Z,100524.45
2023-02-14T12:45:43.721Z,100527.45
2023-02-14T12:48:48.291Z,100530.63
2023-02-14T12:51:45.062Z,100526.59
2023-02-14T12:54:49.811Z,100521.98
2023-02-14T12:57:52.858Z,100522.34
2023-02-14T13:00:53.848Z,100524.23
2023-02-14T13:03:45.691Z,100523.84
2023-02-14T13:06:29.113Z,100516.22
2023-02-14T13:09:20.413Z,100520.33
2023-02-14T13:12:23.558Z,100509.09
2023-02-14T13:15:27.446Z,100508.04
2023-02-14T13:18:27.657Z,100503.17
2023-02-14T13:21:23.507Z,100502.69
2023-02-14T13:24:22.542Z,100505.64
2023-02-14T13:27:21.897Z,100504.37
2023-02-14T13:30:20.513Z,100501.26
2023-02-14T13:32:54.544Z,100500.17
2023-02-14T13:35:46.894Z,100499.45
2023-02-14T13:38:44.286Z,100500.30
2023-02-14T13:41:41.806Z,100499.73
2023-02-14T13:44:48.984Z,100496.75
2023-02-14T13:47:41.160Z,100499.88
2023-02-14T13:50:24.569Z,100505.43
2023-02-14T13:53:32.755Z,100501.36
2023-02-14T13:56:37.861Z,100502.38
2023-02-14T13:59:32.984Z,100501.67
2023-02-14T14:02:46.651Z,100498.91
2023-02-14T14:06:02.672Z,100498.63
2023-02-14T14:08:46.125Z,100497.27
2023-02-14T14:11:52.390Z,100501.70
2023-02-14T14:14:37.516Z,100502.93
2023-02-14T14:17:29.661Z,100498.23
2023-02-14T14:20:43.035Z,100497.55
2023-02-14T14:23:37.125Z,100502.33
2023-02-14T14:26:38.748Z,100506.21
2023-02-14T14:29:34.805Z,100497.84
2023-02-14T14:32:31.461Z,100498.70
2023-02-14T14:35:26.044Z,100501.23
2023-02-14T14:38:18.499Z,100498.21
2023-02-14T14:41:10.663Z,100495.02
2023-02-14T14:44:03.295Z,100498.05
2023-02-14T14:46:59.645Z,100501.34
2023-02-14T14:49:49.022Z,100498.27
2023-02-14T14:52:43.932Z,100495.80
2023-02-14T14:55:39.392Z,100495.92
2023-02-14T14:58:37.573Z,100497.34
2023-02-14T15:01:37.363Z,100496.94
2023-02-14T15:04:31.376Z,100491.52
2023-02-14T15:07:30.181Z,100489.06
2023-02-14T15:10:28.099Z,100487.73
2023-02-14T15:13:38.169Z,100488.65
2023-02-14T15:16:23.341Z,100487.58
2023-02-14T15:19:22.966Z,100487.54
2023-02-14T15:22:23.948Z,100496.20
2023-02-14T15:25:20.526Z,100493.58
2023-02-14T15:28:26.739Z,100499.20
2023-02-14T15:31:19.292Z,100501.75
2023-02-14T15:34:13.533Z,100502.06
2023-02-14T15:37:07.212Z,100504.63
2023-02-14T15:39:47.890Z,100506.48
2023-02-14T15:42:46.373Z,100508.49
2023-02-14T15:45:39.476Z,100508.80
2023-02-14T15:48:34.331Z,100511.05
2023-02-14T15:51:17.158Z,100512.52
2023-02-14T15:54:20.572Z,100513.35
2023-02-14T15:57:24.992Z,100514.55
2023-02-14T16:00:22.151Z,100513.73
2023-02-14T16:03:15.265Z,100517.49
2023-02-14T16:06:07.612Z,100519.16
2023-02-14T16:08:59.936Z,100520.34
2023-02-14T16:11:37.128Z,100525.82
2023-02-14T16:14:37.435Z,100524.65
2023-02-14T16:17:35.977Z,100524.39
2023-02-14T16:20:27.924Z,100529.89
2023-02-14T16:23:26.336Z,100530.51
2023-02-14T16:26:18.400Z,100536.05
2023-02-14T16:29:12.444Z,100536.02
2023-02-14T16:32:16.779Z,100541.25
2023-02-14T16:34:52.888Z,100537.95
2023-02-14T16:37:35.158Z,100537.30
2023-02-14T16:40:29.656Z,100542.64
2023-02-14T16:43:22.967Z,100543.61
2023-02-14T16:46:17.516Z,100541.94
2023-02-14T16:49:09.725Z,100541.73
2023-02-14T16:52:02.152Z,100540.70
2023-02-14T16:54:54.541Z,100543.80
2023-02-14T16:57:41.859Z,100546.41
2023-02-14T17:00:34.034Z,100547.07
2023-02-14T17:03:26.658Z,100553.48
2023-02-14T17:06:21.474Z,100555.01
2023-02-14T17:09:15.857Z,100553.27
2023-02-14T17:12:13.344Z,100554.27
2023-02-14T17:15:10.798Z,100557.21
2023-02-14T17:18:07.586Z,100561.20
2023-02-14T17:21:01.539Z,100556.71
2023-02-14T17:23:33.876Z,100559.09
2023-02-14T17:26:26.014Z,100557.60
2023-02-14T17:29:17.974Z,100561.56
2023-02-14T17:32:13.660Z,100557.06
2023-02-14T17:35:08.857Z,100556.83
2023-02-14T17:38:00.960Z,100554.52
2023-02-14T17:40:53.330Z,100555.22
2023-02-14T17:43:46.094Z,100557.26
2023-02-14T17:46:38.441Z,100557.75
2023-02-14T17:49:30.852Z,100560.63
2023-02-14T17:52:24.151Z,100556.59
2023-02-14T17:55:16.811Z,100558.61
2023-02-14T17:58:08.892Z,100554.84
2023-02-14T18:01:05.583Z,100559.54
2023-02-14T18:03:49.250Z,100557.84
2023-02-14T18:06:42.865Z,100559.04
2023-02-14T18:09:21.471Z,100558.79
2023-02-14T18:11:56.646Z,100560.50
2023-02-14T18:14:48.768Z,100558.34
2023-02-14T18:17:23.900Z,100554.69
2023-02-14T18:20:16.180Z,100553.83
2023-02-14T18:22:57.137Z,100553.15
2023-02-14T18:25:38.346Z,100557.13
2023-02-14T18:28:31.306Z,100550.48
2023-02-14T18:31:24.113Z,100553.20
2023-02-14T18:34:16.271Z,100553.03
2023-02-14T18:37:08.377Z,100551.67
2023-02-14T18:39:45.946Z,100550.31
2023-02-14T18:42:38.016Z,100550.27
2023-02-14T18:45:30.465Z,100549.20
2023-02-14T18:48:05.816Z,100548.70
2023-02-14T18:50:58.728Z,100548.14
2023-02-14T18:53:34.987Z,100548.83
2023-02-14T18:56:29.031Z,100541.20
2023-02-14T18:59:21.394Z,100543.29
2023-02-14T19:02:14.294Z,100542.84
2023-02-14T19:05:07.044Z,100541.48
2023-02-14T19:08:00.412Z,100540.07
2023-02-14T19:10:52.464Z,100540.95
2023-02-14T19:13:49.887Z,100537.10
2023-02-14T19:16:50.041Z,100535.68
2023-02-14T19:19:42.243Z,100533.39
2023-02-14T19:22:24.531Z,100528.95
2023-02-14T19:25:16.659Z,100523.76
2023-02-14T19:28:09.904Z,100525.48
2023-02-14T19:31:02.846Z,100523.92
2023-02-14T19:33:55.585Z,100525.64
2023-02-14T19:36:38.266Z,100524.23
2023-02-14T19:39:19.389Z,100523.67
2023-02-14T19:42:03.976Z,100527.95
2023-02-14T19:44:56.211Z,100525.10
2023-02-14T19:47:48.859Z,100529.55
2023-02-14T19:50:42.158Z,100532.61
2023-02-14T19:53:34.947Z,100529.94
2023-02-14T19:56:28.957Z,100529.16
2023-02-14T19:59:23.037Z,100529.30
2023-02-14T20:02:22.163Z,100531.54
2023-02-14T20:05:14.677Z,100530.81
2023-02-14T20:08:07.424Z,100532.16
2023-02-14T20:10:59.891Z,100536.84
2023-02-14T20:13:52.491Z,100533.02
2023-02-14T20:16:32.078Z,100532.11
2023-02-14T20:19:27.143Z,100537.43
2023-02-14T20:22:20.413Z,100538.77
2023-02-14T20:25:12.775Z,100535.48
2023-02-14T20:28:05.114Z,100536.73
2023-02-14T20:30:57.320Z,100534.95
2023-02-14T20:33:32.802Z,100531.05
2023-02-14T20:36:13.957Z,100532.79
2023-02-14T20:39:08.411Z,100533.14
2023-02-14T20:42:00.813Z,100532.97
2023-02-14T20:44:34.011Z,100532.66
2023-02-14T20:47:26.440Z,100531.52
2023-02-14T20:50:19.120Z,100533.17
2023-02-14T20:53:08.379Z,100530.36
2023-02-14T20:56:00.455Z,100530.37
2023-02-14T20:58:34.514Z,100531.23
2023-02-14T21:01:27.092Z,100529.65
2023-02-14T21:04:19.330Z,100528.44
2023-02-14T21:07:11.412Z,100527.23
2023-02-14T21:10:03.744Z,100526.66
2023-02-14T21:12:44.734Z,100524.21
2023-02-14T21:15:36.865Z,100520.55
2023-02-14T21:18:12.614Z,100524.19
2023-02-14T21:21:12.106Z,100524.86
2023-02-14T21:24:07.184Z,100517.70
2023-02-14T21:26:59.398Z,100514.19
2023-02-14T21:29:51.918Z,100513.66
2023-02-14T21:32:40.685Z,100514.33
2023-02-14T21:35:36.202Z,100508.83
2023-02-14T21:38:31.780Z,100509.30
2023-02-14T21:41:26.175Z,100505.13
2023-02-14T21:44:42.306Z,100501.91
2023-02-14T21:47:36.862Z,100501.75
2023-02-14T21:50:31.732Z,100499.16
2023-02-14T21:53:24.123Z,100500.00
2023-02-14T21:56:19.685Z,100497.85
2023-02-14T21:59:12.652Z,100491.72
2023-02-14T22:02:04.754Z,100489.63
2023-02-14T22:04:56.817Z,100491.17
2023-02-14T22:07:38.120Z,100487.73
2023-02-14T22:10:15.715Z,100483.02
2023-02-14T22:13:07.775Z,100481.50
2023-02-14T22:16:06.437Z,100480.14
2023-02-14T22:18:58.828Z,100479.39
2023-02-14T22:21:50.951Z,100478.04
2023-02-14T22:24:43.005Z,100472.92
2023-02-14T22:27:38.473Z,100476.54
2023-02-14T22:30:30.559Z,100473.58
2023-02-14T22:33:24.308Z,100471.42
2023-02-14T22:36:00.345Z,100469.17
2023-02-14T22:38:52.845Z,100469.59
2023-02-14T22:41:45.496Z,100467.22
2023-02-14T22:44:37.558Z,100468.28
2023-02-14T22:47:29.692Z,100469.38
2023-02-14T22:50:22.002Z,100470.33
2023-02-14T22:53:14.079Z,100468.48
2023-02-14T22:56:15.515Z,100470.73
2023-02-14T22:59:09.590Z,100470.70
2023-02-14T23:02:02.359Z,100470.98
2023-02-14T23:04:34.502Z,100475.29
2023-02-14T23:07:26.836Z,100473.52
2023-02-14T23:10:19.185Z,100472.05
2023-02-14T23:13:13.950Z,100471.69
2023-02-14T23:16:06.446Z,100466.11
2023-02-14T23:19:12.436Z,100465.88
2023-02-14T23:21:57.366Z,100464.40
2023-02-14T23:24:50.830Z,100460.86
2023-02-14T23:27:45.257Z,100458.74
2023-02-14T23:30:22.211Z,100454.39
2023-02-14T23:33:14.372Z,100456.70
2023-02-14T23:36:07.323Z,100451.36
2023-02-14T23:38:59.512Z,100447.71
2023-02-14T23:41:49.735Z,100449.05
2023-02-14T23:44:43.131Z,100450.10
2023-02-14T23:47:35.249Z,100446.59
2023-02-14T23:50:27.293Z,100445.55
2023-02-14T23:53:19.386Z,100444.04
2023-02-14T23:56:11.445Z,100438.64
2023-02-14T23:59:03.732Z,100433.92
